Meteorología y climatología de Navarra
Datos de la estación - Meteo Navarra

Estación de Irabia GN

Altitud 822 m.


Datos desde el 16/09/2020 hasta el 17/09/2020 en horario solar
Los datos son PROVISIONALES

Anterior Página 1 de 1 Siguiente Descargar: Formato para Excel 2000 o superior   Formato csv   Formato para OpenOffice Calc
Fecha Temperatura Humedad relativa Radiación global Insolación Precipitación Vel. viento 10 m Vel. viento 10 m Dir. viento 10 m
ºC % W/m² s l/m² m/s km/h º
16/09/2020 0:00 12.7 97 - - - - 0.0 - - - - - -
16/09/2020 0:10 12.6 97 - - - - 0.0 - - - - - -
16/09/2020 0:20 12.5 97 - - - - 0.0 - - - - - -
16/09/2020 0:30 12.3 98 - - - - 0.0 - - - - - -
16/09/2020 0:40 12.3 98 - - - - 0.0 - - - - - -
16/09/2020 0:50 12.1 98 - - - - 0.0 - - - - - -
16/09/2020 1:00 12.0 98 - - - - 0.0 - - - - - -
16/09/2020 1:10 11.9 98 - - - - 0.0 - - - - - -
16/09/2020 1:20 11.8 98 - - - - 0.0 - - - - - -
16/09/2020 1:30 11.9 98 - - - - 0.0 - - - - - -
16/09/2020 1:40 11.9 98 - - - - 0.0 - - - - - -
16/09/2020 1:50 11.7 98 - - - - 0.0 - - - - - -
16/09/2020 2:00 11.8 98 - - - - 0.0 - - - - - -
16/09/2020 2:10 11.5 98 - - - - 0.0 - - - - - -
16/09/2020 2:20 11.5 98 - - - - 0.0 - - - - - -
16/09/2020 2:30 11.4 98 - - - - 0.0 - - - - - -
16/09/2020 2:40 11.4 98 - - - - 0.0 - - - - - -
16/09/2020 2:50 11.4 98 - - - - 0.0 - - - - - -
16/09/2020 3:00 11.4 98 - - - - 0.0 - - - - - -
16/09/2020 3:10 11.3 98 - - - - 0.0 - - - - - -
16/09/2020 3:20 11.1 98 - - - - 0.0 - - - - - -
16/09/2020 3:30 11.1 98 - - - - 0.0 - - - - - -
16/09/2020 3:40 11.1 98 - - - - 0.0 - - - - - -
16/09/2020 3:50 11.0 98 - - - - 0.0 - - - - - -
16/09/2020 4:00 10.9 98 - - - - 0.0 - - - - - -
16/09/2020 4:10 10.9 98 - - - - 0.0 - - - - - -
16/09/2020 4:20 10.9 98 - - - - 0.0 - - - - - -
16/09/2020 4:30 10.8 98 - - - - 0.0 - - - - - -
16/09/2020 4:40 10.8 98 - - - - 0.0 - - - - - -
16/09/2020 4:50 10.7 98 - - - - 0.0 - - - - - -
16/09/2020 5:00 10.6 98 - - - - 0.0 - - - - - -
16/09/2020 5:10 10.7 98 - - - - 0.0 - - - - - -
16/09/2020 5:20 10.6 98 - - - - 0.0 - - - - - -
16/09/2020 5:30 10.7 98 - - - - 0.0 - - - - - -
16/09/2020 5:40 10.6 98 - - - - 0.0 - - - - - -
16/09/2020 5:50 10.7 98 - - - - 0.0 - - - - - -
16/09/2020 6:00 10.5 98 - - - - 0.0 - - - - - -
16/09/2020 6:10 10.5 98 - - - - 0.0 - - - - - -
16/09/2020 6:20 10.6 98 - - - - 0.0 - - - - - -
16/09/2020 6:30 10.9 98 - - - - 0.0 - - - - - -
16/09/2020 6:40 10.8 98 - - - - 0.0 - - - - - -
16/09/2020 6:50 11.0 98 - - - - 0.0 - - - - - -
16/09/2020 7:00 11.2 98 - - - - 0.0 - - - - - -
16/09/2020 7:10 11.4 98 - - - - 0.0 - - - - - -
16/09/2020 7:20 11.6 98 - - - - 0.0 - - - - - -
16/09/2020 7:30 12.3 98 - - - - 0.0 - - - - - -
16/09/2020 7:40 12.8 97 - - - - 0.0 - - - - - -
16/09/2020 7:50 14.2 91 - - - - 0.0 - - - - - -
16/09/2020 8:00 15.8 83 - - - - 0.0 - - - - - -
16/09/2020 8:10 16.2 81 - - - - 0.0 - - - - - -
16/09/2020 8:20 16.6 80 - - - - 0.0 - - - - - -
16/09/2020 8:30 17.1 79 - - - - 0.0 - - - - - -
16/09/2020 8:40 17.9 76 - - - - 0.0 - - - - - -
16/09/2020 8:50 18.7 74 - - - - 0.0 - - - - - -
16/09/2020 9:00 19.2 73 - - - - 0.0 - - - - - -
16/09/2020 9:10 19.5 73 - - - - 0.0 - - - - - -
16/09/2020 9:20 20.1 72 - - - - 0.0 - - - - - -
16/09/2020 9:30 20.5 72 - - - - 0.0 - - - - - -
16/09/2020 9:40 21.3 68 - - - - 0.0 - - - - - -
16/09/2020 9:50 22.4 65 - - - - 0.0 - - - - - -
16/09/2020 10:00 22.7 64 - - - - 0.0 - - - - - -
16/09/2020 10:10 22.8 63 - - - - 0.0 - - - - - -
16/09/2020 10:20 23.7 59 - - - - 0.0 - - - - - -
16/09/2020 10:30 24.7 56 - - - - 0.0 - - - - - -
16/09/2020 10:40 24.9 55 - - - - 0.0 - - - - - -
16/09/2020 10:50 25.0 55 - - - - 0.0 - - - - - -
16/09/2020 11:00 25.2 55 - - - - 0.0 - - - - - -
16/09/2020 11:10 24.7 56 - - - - 0.0 - - - - - -
16/09/2020 11:20 25.5 52 - - - - 0.0 - - - - - -
16/09/2020 11:30 25.6 50 - - - - 0.0 - - - - - -
16/09/2020 11:40 25.2 51 - - - - 0.0 - - - - - -
16/09/2020 11:50 25.3 51 - - - - 0.0 - - - - - -
16/09/2020 12:00 24.7 55 - - - - 0.0 - - - - - -
16/09/2020 12:10 24.4 56 - - - - 0.0 - - - - - -
16/09/2020 12:20 24.8 50 - - - - 0.0 - - - - - -
16/09/2020 12:30 24.2 55 - - - - 0.0 - - - - - -
16/09/2020 12:40 23.7 57 - - - - 0.0 - - - - - -
16/09/2020 12:50 23.5 58 - - - - 0.0 - - - - - -
16/09/2020 13:00 23.3 59 - - - - 0.0 - - - - - -
16/09/2020 13:10 23.8 58 - - - - 0.0 - - - - - -
16/09/2020 13:20 25.1 53 - - - - 0.0 - - - - - -
16/09/2020 13:30 25.5 52 - - - - 0.0 - - - - - -
16/09/2020 13:40 25.3 53 - - - - 0.0 - - - - - -
16/09/2020 13:50 25.6 52 - - - - 0.0 - - - - - -
16/09/2020 14:00 25.4 54 - - - - 0.0 - - - - - -
16/09/2020 14:10 25.6 50 - - - - 0.0 - - - - - -
16/09/2020 14:20 25.8 48 - - - - 0.0 - - - - - -
16/09/2020 14:30 25.5 49 - - - - 0.0 - - - - - -
16/09/2020 14:40 25.3 50 - - - - 0.0 - - - - - -
16/09/2020 14:50 25.5 48 - - - - 0.0 - - - - - -
16/09/2020 15:00 25.7 48 - - - - 0.0 - - - - - -
16/09/2020 15:10 25.5 47 - - - - 0.0 - - - - - -
16/09/2020 15:20 25.6 47 - - - - 0.0 - - - - - -
16/09/2020 15:30 25.5 48 - - - - 0.0 - - - - - -
16/09/2020 15:40 25.0 51 - - - - 0.0 - - - - - -
16/09/2020 15:50 24.7 51 - - - - 0.0 - - - - - -
16/09/2020 16:00 24.5 53 - - - - 0.0 - - - - - -
16/09/2020 16:10 23.9 56 - - - - 0.0 - - - - - -
16/09/2020 16:20 23.6 56 - - - - 0.0 - - - - - -
16/09/2020 16:30 23.7 57 - - - - 0.0 - - - - - -
16/09/2020 16:40 23.7 58 - - - - 0.0 - - - - - -
16/09/2020 16:50 23.3 60 - - - - 0.0 - - - - - -
16/09/2020 17:00 22.7 61 - - - - 0.0 - - - - - -
16/09/2020 17:10 22.2 63 - - - - 0.0 - - - - - -
16/09/2020 17:20 21.7 64 - - - - 0.0 - - - - - -
16/09/2020 17:30 21.2 65 - - - - 0.0 - - - - - -
16/09/2020 17:40 20.8 66 - - - - 0.0 - - - - - -
16/09/2020 17:50 20.4 67 - - - - 0.0 - - - - - -
16/09/2020 18:00 19.9 70 - - - - 0.0 - - - - - -
16/09/2020 18:10 19.4 73 - - - - 0.0 - - - - - -
16/09/2020 18:20 18.8 77 - - - - 0.0 - - - - - -
16/09/2020 18:30 18.3 79 - - - - 0.0 - - - - - -
16/09/2020 18:40 18.0 78 - - - - 0.0 - - - - - -
16/09/2020 18:50 17.6 79 - - - - 0.0 - - - - - -
16/09/2020 19:00 17.2 83 - - - - 0.0 - - - - - -
16/09/2020 19:10 17.0 84 - - - - 0.0 - - - - - -
16/09/2020 19:20 16.6 86 - - - - 0.0 - - - - - -
16/09/2020 19:30 16.5 87 - - - - 0.0 - - - - - -
16/09/2020 19:40 16.2 87 - - - - 0.0 - - - - - -
16/09/2020 19:50 16.1 89 - - - - 0.0 - - - - - -
16/09/2020 20:00 15.9 90 - - - - 0.0 - - - - - -
16/09/2020 20:10 15.8 91 - - - - 0.0 - - - - - -
16/09/2020 20:20 15.6 91 - - - - 0.0 - - - - - -
16/09/2020 20:30 15.4 91 - - - - 0.0 - - - - - -
16/09/2020 20:40 15.2 91 - - - - 0.0 - - - - - -
16/09/2020 20:50 15.0 92 - - - - 0.0 - - - - - -
16/09/2020 21:00 14.8 93 - - - - 0.0 - - - - - -
16/09/2020 21:10 14.6 93 - - - - 0.0 - - - - - -
16/09/2020 21:20 14.5 94 - - - - 0.0 - - - - - -
16/09/2020 21:30 14.4 94 - - - - 0.0 - - - - - -
16/09/2020 21:40 14.3 95 - - - - 0.0 - - - - - -
16/09/2020 21:50 14.1 95 - - - - 0.0 - - - - - -
16/09/2020 22:00 13.9 95 - - - - 0.0 - - - - - -
16/09/2020 22:10 13.8 95 - - - - 0.0 - - - - - -
16/09/2020 22:20 13.6 95 - - - - 0.0 - - - - - -
16/09/2020 22:30 13.5 96 - - - - 0.0 - - - - - -
16/09/2020 22:40 13.4 96 - - - - 0.0 - - - - - -
16/09/2020 22:50 13.3 96 - - - - 0.0 - - - - - -
16/09/2020 23:00 13.2 97 - - - - 0.0 - - - - - -
16/09/2020 23:10 13.2 97 - - - - 0.0 - - - - - -
16/09/2020 23:20 13.2 97 - - - - 0.0 - - - - - -
16/09/2020 23:30 13.1 97 - - - - 0.0 - - - - - -
16/09/2020 23:40 13.1 97 - - - - 0.0 - - - - - -
16/09/2020 23:50 13.0 98 - - - - 0.0 - - - - - -
Anterior Página 1 de 1 Siguiente

NOTA: Tipo de datos según el color:
   - Valores diarios o 10 minutos correctos
   - Valores diarios calculados a partir de un número de datos 10 minutos menor que 144 y mayor que 120, o de un número de datos semihorarios menor que 48 y mayor que 40 (caso de las estaciones de INTIA y del Ministerio)
   - Valores diez minutos estimados


Contacto        Enlaces        Aviso legal